createdAt,value
2022-08-18T00:01:26.511Z,19.82
2022-08-18T00:03:56.032Z,19.88
2022-08-18T00:05:55.393Z,19.85
2022-08-18T00:07:58.260Z,19.78
2022-08-18T00:10:02.007Z,19.96
2022-08-18T00:12:10.388Z,19.99
2022-08-18T00:14:21.483Z,20.00
2022-08-18T00:16:25.000Z,19.71
2022-08-18T00:18:27.965Z,19.15
2022-08-18T00:20:31.106Z,19.57
2022-08-18T00:22:34.429Z,19.52
2022-08-18T00:24:38.439Z,19.24
2022-08-18T00:26:51.618Z,19.32
2022-08-18T00:28:55.823Z,19.73
2022-08-18T00:30:58.626Z,19.45
2022-08-18T00:33:02.213Z,19.78
2022-08-18T00:35:08.031Z,19.77
2022-08-18T00:37:10.924Z,18.31
2022-08-18T00:39:13.905Z,20.26
2022-08-18T00:41:18.090Z,19.08
2022-08-18T00:43:25.808Z,19.81
2022-08-18T00:45:37.624Z,18.83
2022-08-18T00:47:42.387Z,19.30
2022-08-18T00:49:49.573Z,17.68
2022-08-18T00:51:53.265Z,18.22
2022-08-18T00:54:02.068Z,18.71
2022-08-18T00:56:09.530Z,18.95
2022-08-18T00:58:21.905Z,19.12
2022-08-18T01:00:24.779Z,18.91
2022-08-18T01:02:32.847Z,17.54
2022-08-18T01:04:42.260Z,18.15
2022-08-18T01:06:52.409Z,18.14
2022-08-18T01:08:55.972Z,17.75
2022-08-18T01:11:01.711Z,16.67
2022-08-18T01:13:06.881Z,18.70
2022-08-18T01:17:48.498Z,17.46
2022-08-18T01:20:09.174Z,18.53
2022-08-18T01:22:19.286Z,18.70
2022-08-18T01:24:42.625Z,19.79
2022-08-18T01:26:50.038Z,20.24
2022-08-18T01:28:53.990Z,18.95
2022-08-18T01:30:59.025Z,20.54
2022-08-18T01:33:01.909Z,20.43
2022-08-18T01:35:08.577Z,19.42
2022-08-18T01:37:11.416Z,19.51
2022-08-18T01:39:14.800Z,19.79
2022-08-18T01:41:40.537Z,19.92
2022-08-18T01:43:43.513Z,19.19
2022-08-18T01:45:46.358Z,19.71
2022-08-18T01:47:50.599Z,18.65
2022-08-18T01:49:53.469Z,19.82
2022-08-18T01:51:56.561Z,19.53
2022-08-18T01:53:58.868Z,19.55
2022-08-18T01:56:05.525Z,19.82
2022-08-18T01:58:09.679Z,16.58
2022-08-18T02:00:15.512Z,17.41
2022-08-18T02:02:24.482Z,19.14
2022-08-18T02:04:36.012Z,19.04
2022-08-18T02:06:46.447Z,18.91
2022-08-18T02:08:53.796Z,18.84
2022-08-18T02:10:58.764Z,18.79
2022-08-18T02:13:01.794Z,15.93
2022-08-18T02:15:07.835Z,18.14
2022-08-18T02:17:13.067Z,18.48
2022-08-18T02:19:15.920Z,17.85
2022-08-18T02:21:21.822Z,17.91
2022-08-18T02:23:25.294Z,16.95
2022-08-18T02:25:28.209Z,17.20
2022-08-18T02:27:31.230Z,18.53
2022-08-18T02:29:36.809Z,16.96
2022-08-18T02:31:41.008Z,18.52
2022-08-18T02:33:51.961Z,14.49
2022-08-18T02:35:55.850Z,18.34
2022-08-18T02:38:00.531Z,17.04
2022-08-18T02:40:07.595Z,15.49
2022-08-18T02:42:14.044Z,17.90
2022-08-18T02:44:17.128Z,18.71
2022-08-18T02:46:21.298Z,18.69
2022-08-18T02:48:31.262Z,18.27
2022-08-18T02:50:34.179Z,16.17
2022-08-18T02:52:37.059Z,18.34
2022-08-18T02:54:42.388Z,18.80
2022-08-18T02:56:47.002Z,18.92
2022-08-18T02:58:50.817Z,18.45
2022-08-18T03:00:53.662Z,17.69
2022-08-18T03:02:56.875Z,16.63
2022-08-18T03:05:01.080Z,17.15
2022-08-18T03:07:06.927Z,19.33
2022-08-18T03:09:13.064Z,18.91
2022-08-18T03:11:16.411Z,18.82
2022-08-18T03:13:19.270Z,18.72
2022-08-18T03:15:22.198Z,19.06
2022-08-18T03:17:29.255Z,19.13
2022-08-18T03:19:34.488Z,19.40
2022-08-18T03:21:39.184Z,12.56
2022-08-18T03:23:44.351Z,17.94
2022-08-18T03:26:03.959Z,18.42
2022-08-18T03:28:07.057Z,18.63
2022-08-18T03:30:11.660Z,18.90
2022-08-18T03:32:14.923Z,18.83
2022-08-18T03:34:20.720Z,19.23
2022-08-18T03:36:25.654Z,19.45
2022-08-18T03:38:29.939Z,19.56
2022-08-18T03:40:32.805Z,19.33
2022-08-18T03:42:35.676Z,19.39
2022-08-18T03:44:38.683Z,15.38
2022-08-18T03:46:42.582Z,18.92
2022-08-18T03:48:47.232Z,18.54
2022-08-18T03:50:50.047Z,18.81
2022-08-18T03:52:53.288Z,19.24
2022-08-18T03:54:57.464Z,19.64
2022-08-18T03:57:00.478Z,19.64
2022-08-18T03:59:07.809Z,19.67
2022-08-18T04:01:11.386Z,20.04
2022-08-18T04:03:14.231Z,19.34
2022-08-18T04:05:17.062Z,18.74
2022-08-18T04:07:19.919Z,19.76
2022-08-18T04:09:24.870Z,18.31
2022-08-18T04:11:30.236Z,20.10
2022-08-18T04:13:39.332Z,20.39
2022-08-18T04:15:42.291Z,20.59
2022-08-18T04:18:03.104Z,20.78
2022-08-18T04:20:08.068Z,20.86
2022-08-18T04:22:17.300Z,19.28
2022-08-18T04:24:21.997Z,21.06
2022-08-18T04:26:24.815Z,20.98
2022-08-18T04:28:30.276Z,18.95
2022-08-18T04:30:33.435Z,20.35
2022-08-18T04:32:36.385Z,20.26
2022-08-18T04:34:39.578Z,20.02
2022-08-18T04:36:43.746Z,19.59
2022-08-18T04:38:46.971Z,18.87
2022-08-18T04:40:50.353Z,19.30
2022-08-18T04:42:54.092Z,19.11
2022-08-18T04:44:59.156Z,18.20
2022-08-18T04:47:02.439Z,18.88
2022-08-18T04:49:05.326Z,18.74
2022-08-18T04:51:10.242Z,18.53
2022-08-18T04:53:31.722Z,18.22
2022-08-18T04:55:34.647Z,18.57
2022-08-18T04:57:37.842Z,17.14
2022-08-18T04:59:45.612Z,15.75
2022-08-18T05:01:50.025Z,18.39
2022-08-18T05:03:58.284Z,17.98
2022-08-18T05:06:08.546Z,18.16
2022-08-18T05:08:11.420Z,18.18
2022-08-18T05:10:17.871Z,18.32
2022-08-18T05:12:26.039Z,18.42
2022-08-18T05:14:29.618Z,16.60
2022-08-18T05:16:36.624Z,12.95
2022-08-18T05:18:53.385Z,18.49
2022-08-18T05:20:58.613Z,18.46
2022-08-18T05:23:02.500Z,18.48
2022-08-18T05:25:06.194Z,18.59
2022-08-18T05:27:09.105Z,18.37
2022-08-18T05:29:18.396Z,18.34
2022-08-18T05:31:54.469Z,15.79
2022-08-18T05:34:03.012Z,18.57
2022-08-18T05:36:12.274Z,18.67
2022-08-18T05:38:35.449Z,18.75
2022-08-18T05:40:39.015Z,18.75
2022-08-18T05:42:43.085Z,18.74
2022-08-18T05:44:48.226Z,17.12
2022-08-18T05:46:53.685Z,18.71
2022-08-18T05:48:56.610Z,17.77
2022-08-18T05:51:11.421Z,18.19
2022-08-18T05:53:18.393Z,18.19
2022-08-18T05:55:58.912Z,17.76
2022-08-18T05:58:05.529Z,15.06
2022-08-18T06:00:11.664Z,18.40
2022-08-18T06:02:32.789Z,19.03
2022-08-18T06:04:48.777Z,19.14
2022-08-18T06:06:56.424Z,19.18
2022-08-18T06:09:06.429Z,18.19
2022-08-18T06:11:17.143Z,18.99
2022-08-18T06:13:27.471Z,19.18
2022-08-18T06:15:48.753Z,19.23
2022-08-18T06:18:31.890Z,19.32
2022-08-18T06:20:44.145Z,19.44
2022-08-18T06:22:57.520Z,19.47
2022-08-18T06:25:06.093Z,19.53
2022-08-18T06:27:18.927Z,19.58
2022-08-18T06:29:44.427Z,19.62
2022-08-18T06:31:57.909Z,19.70
2022-08-18T06:34:10.456Z,19.73
2022-08-18T06:36:22.851Z,19.82
2022-08-18T06:38:45.409Z,16.59
2022-08-18T06:40:49.229Z,19.41
2022-08-18T06:42:52.159Z,19.73
2022-08-18T06:45:02.398Z,19.67
2022-08-18T06:47:16.166Z,19.45
2022-08-18T06:49:29.631Z,19.78
2022-08-18T06:51:36.326Z,19.92
2022-08-18T06:53:57.807Z,19.97
2022-08-18T06:56:25.957Z,19.95
2022-08-18T06:58:31.502Z,19.87
2022-08-18T07:00:36.887Z,19.83
2022-08-18T07:02:52.040Z,19.72
2022-08-18T07:05:08.066Z,19.66
2022-08-18T07:07:40.201Z,19.49
2022-08-18T07:09:44.366Z,14.28
2022-08-18T07:12:06.674Z,19.46
2022-08-18T07:14:18.826Z,19.45
2022-08-18T07:16:46.937Z,18.37
2022-08-18T07:18:48.648Z,19.52
2022-08-18T07:20:54.775Z,17.95
2022-08-18T07:23:00.261Z,19.58
2022-08-18T07:25:06.076Z,19.65
2022-08-18T07:27:13.201Z,19.67
2022-08-18T07:29:16.979Z,19.69
2022-08-18T07:31:40.944Z,19.55
2022-08-18T07:33:51.436Z,19.55
2022-08-18T07:35:59.520Z,19.49
2022-08-18T07:38:38.628Z,17.65
2022-08-18T07:40:38.364Z,19.64
2022-08-18T07:43:01.606Z,19.77
2022-08-18T07:45:11.020Z,18.04
2022-08-18T07:47:19.567Z,19.45
2022-08-18T07:49:25.886Z,19.86
2022-08-18T07:51:43.829Z,18.03
2022-08-18T07:53:56.183Z,19.16
2022-08-18T07:56:05.560Z,20.35
2022-08-18T07:58:23.758Z,14.97
2022-08-18T08:00:57.448Z,14.01
2022-08-18T08:03:11.595Z,14.57
2022-08-18T08:05:21.562Z,19.50
2022-08-18T08:07:27.355Z,20.32
2022-08-18T08:09:40.128Z,20.72
2022-08-18T08:11:54.596Z,20.87
2022-08-18T08:14:10.627Z,20.62
2022-08-18T08:16:21.376Z,20.82
2022-08-18T08:18:37.956Z,20.95
2022-08-18T08:20:48.712Z,19.49
2022-08-18T08:23:06.052Z,21.10
2022-08-18T08:25:44.674Z,21.02
2022-08-18T08:27:58.510Z,20.99
2022-08-18T08:30:08.284Z,19.03
2022-08-18T08:32:16.266Z,19.73
2022-08-18T08:34:25.957Z,20.96
2022-08-18T08:36:34.137Z,21.19
2022-08-18T08:38:45.353Z,21.41
2022-08-18T08:40:55.326Z,21.60
2022-08-18T08:43:03.936Z,21.53
2022-08-18T08:45:15.085Z,21.91
2022-08-18T08:47:23.396Z,21.36
2022-08-18T08:49:38.380Z,20.89
2022-08-18T08:51:48.919Z,21.93
2022-08-18T08:53:56.907Z,20.60
2022-08-18T08:56:05.209Z,21.72
2022-08-18T08:58:20.511Z,21.99
2022-08-18T09:00:28.425Z,22.27
2022-08-18T09:02:49.446Z,22.10
2022-08-18T09:05:08.711Z,22.44
2022-08-18T09:07:26.542Z,22.44
2022-08-18T09:09:49.786Z,21.28
2022-08-18T09:12:13.340Z,22.48
2022-08-18T09:14:38.250Z,22.37
2022-08-18T09:16:54.616Z,23.02
2022-08-18T09:19:14.099Z,23.41
2022-08-18T09:21:31.105Z,23.36
2022-08-18T09:23:41.038Z,23.80
2022-08-18T09:25:52.127Z,24.21
2022-08-18T09:28:11.442Z,24.46
2022-08-18T09:30:41.130Z,24.21
2022-08-18T09:32:57.570Z,23.98
2022-08-18T09:35:13.011Z,23.96
2022-08-18T09:37:21.528Z,23.19
2022-08-18T09:42:16.106Z,23.09
2022-08-18T09:44:52.396Z,24.17
2022-08-18T09:47:02.554Z,24.37
2022-08-18T09:49:41.725Z,24.73
2022-08-18T09:51:52.346Z,24.49
2022-08-18T09:54:13.218Z,24.65
2022-08-18T09:56:19.633Z,24.57
2022-08-18T09:58:56.068Z,24.82
2022-08-18T10:01:24.165Z,25.23
2022-08-18T10:03:31.279Z,25.61
2022-08-18T10:05:36.644Z,26.04
2022-08-18T10:07:44.013Z,26.02
2022-08-18T10:10:03.693Z,25.76
2022-08-18T10:12:57.749Z,26.30
2022-08-18T10:15:33.878Z,26.19
2022-08-18T10:17:51.342Z,25.35
2022-08-18T10:20:05.753Z,25.41
2022-08-18T10:22:12.117Z,26.23
2022-08-18T10:27:09.782Z,26.34
2022-08-18T10:29:45.510Z,26.80
2022-08-18T10:32:26.459Z,26.72
2022-08-18T10:34:40.662Z,25.32
2022-08-18T10:36:59.697Z,25.15
2022-08-18T10:39:06.198Z,26.10
2022-08-18T10:41:20.155Z,25.71
2022-08-18T10:43:45.766Z,26.32
2022-08-18T10:46:24.314Z,23.41
2022-08-18T10:48:24.454Z,26.81
2022-08-18T10:50:31.452Z,26.83
2022-08-18T10:53:10.170Z,26.53
2022-08-18T10:58:30.380Z,26.03
2022-08-18T11:00:46.165Z,26.12
2022-08-18T11:03:42.763Z,24.25
2022-08-18T11:05:31.833Z,26.10
2022-08-18T11:07:39.691Z,25.47
2022-08-18T11:09:50.764Z,25.86
2022-08-18T11:12:03.471Z,26.18
2022-08-18T11:14:17.024Z,23.46
2022-08-18T11:16:33.138Z,23.99
2022-08-18T11:18:43.168Z,25.98
2022-08-18T11:20:47.648Z,25.81
2022-08-18T11:22:54.333Z,24.93
2022-08-18T11:24:58.333Z,25.35
2022-08-18T11:29:34.186Z,25.56
2022-08-18T11:31:37.582Z,26.09
2022-08-18T11:33:42.026Z,26.45
2022-08-18T11:35:48.682Z,26.22
2022-08-18T11:37:58.208Z,26.67
2022-08-18T11:40:07.324Z,26.14
2022-08-18T11:42:21.591Z,26.59
2022-08-18T11:44:31.725Z,26.12
2022-08-18T11:46:40.778Z,26.45
2022-08-18T11:48:52.422Z,26.03
2022-08-18T11:51:04.555Z,25.47
2022-08-18T11:53:18.984Z,24.66
2022-08-18T11:55:33.851Z,25.16
2022-08-18T11:57:52.247Z,25.04
2022-08-18T12:00:00.482Z,25.24
2022-08-18T12:02:05.496Z,25.17
2022-08-18T12:04:15.609Z,25.05
2022-08-18T12:06:26.652Z,25.24
2022-08-18T12:13:30.187Z,25.24
2022-08-18T12:15:43.671Z,25.02
2022-08-18T12:17:49.838Z,24.90
2022-08-18T12:19:57.620Z,25.28
2022-08-18T12:22:13.538Z,25.57
2022-08-18T12:24:26.499Z,22.26
2022-08-18T12:26:38.965Z,25.04
2022-08-18T12:28:52.108Z,24.86
2022-08-18T12:33:18.111Z,24.33
2022-08-18T12:35:29.012Z,21.39
2022-08-18T12:37:58.136Z,24.72
2022-08-18T12:39:56.918Z,24.66
2022-08-18T12:42:01.258Z,25.21
2022-08-18T12:44:09.879Z,24.04
2022-08-18T12:46:16.452Z,22.63
2022-08-18T12:48:22.205Z,24.31
2022-08-18T12:50:31.346Z,25.59
2022-08-18T12:52:37.969Z,25.48
2022-08-18T12:54:55.737Z,25.61
2022-08-18T12:56:59.532Z,25.70
2022-08-18T12:59:08.475Z,25.63
2022-08-18T13:01:11.846Z,25.12
2022-08-18T13:03:15.247Z,26.09
2022-08-18T13:05:19.818Z,23.45
2022-08-18T13:07:31.382Z,23.51
2022-08-18T13:09:52.710Z,26.59
2022-08-18T13:11:57.150Z,25.88
2022-08-18T13:14:03.336Z,25.51
2022-08-18T13:16:16.348Z,26.00
2022-08-18T13:18:33.451Z,25.71
2022-08-18T13:20:39.405Z,25.74
2022-08-18T13:22:48.363Z,25.60
2022-08-18T13:24:53.301Z,25.32
2022-08-18T13:27:02.120Z,24.63
2022-08-18T13:29:05.656Z,25.87
2022-08-18T13:31:16.155Z,24.16
2022-08-18T13:33:35.283Z,25.80
2022-08-18T13:35:44.669Z,26.72
2022-08-18T13:37:48.432Z,25.10
2022-08-18T13:39:52.758Z,26.59
2022-08-18T13:42:21.503Z,26.77
2022-08-18T13:44:29.031Z,26.52
2022-08-18T13:46:33.649Z,26.58
2022-08-18T13:48:37.655Z,26.66
2022-08-18T13:50:43.406Z,27.07
2022-08-18T13:52:50.420Z,26.40
2022-08-18T13:54:55.060Z,27.08
2022-08-18T13:57:00.231Z,26.65
2022-08-18T13:59:04.919Z,24.13
2022-08-18T14:03:46.680Z,28.21
2022-08-18T14:05:52.350Z,28.71
2022-08-18T14:07:56.046Z,29.09
2022-08-18T14:10:04.365Z,28.74
2022-08-18T14:12:15.901Z,28.15
2022-08-18T14:14:27.804Z,28.23
2022-08-18T14:16:31.305Z,28.23
2022-08-18T14:18:34.269Z,28.12
2022-08-18T14:20:56.238Z,28.02
2022-08-18T14:23:21.979Z,27.59
2022-08-18T14:25:51.289Z,27.76
2022-08-18T14:27:56.880Z,27.45
2022-08-18T14:30:01.450Z,27.61
2022-08-18T14:32:04.975Z,27.15
2022-08-18T14:34:09.803Z,27.25
2022-08-18T14:36:16.392Z,26.90
2022-08-18T14:38:21.255Z,27.12
2022-08-18T14:40:24.553Z,26.86
2022-08-18T14:42:41.290Z,27.11
2022-08-18T14:44:51.801Z,26.88
2022-08-18T14:47:17.495Z,23.05
2022-08-18T14:49:29.282Z,24.18
2022-08-18T14:51:34.237Z,25.61
2022-08-18T14:53:38.216Z,26.08
2022-08-18T14:55:41.407Z,26.38
2022-08-18T14:57:44.709Z,26.18
2022-08-18T14:59:48.539Z,26.06
2022-08-18T15:01:52.370Z,26.39
2022-08-18T15:03:56.903Z,25.98
2022-08-18T15:06:04.732Z,24.43
2022-08-18T15:08:11.016Z,26.72
2022-08-18T15:10:16.645Z,26.81
2022-08-18T15:12:24.636Z,26.83
2022-08-18T15:14:33.649Z,25.49
2022-08-18T15:16:39.833Z,25.42
2022-08-18T15:18:43.026Z,23.27
2022-08-18T15:21:04.111Z,22.36
2022-08-18T15:23:32.454Z,26.07
2022-08-18T15:25:44.532Z,26.45
2022-08-18T15:27:47.786Z,17.57
2022-08-18T15:29:55.887Z,26.57
2022-08-18T15:32:05.168Z,26.24
2022-08-18T15:34:12.709Z,25.19
2022-08-18T15:36:23.979Z,26.68
2022-08-18T15:38:33.502Z,26.46
2022-08-18T15:40:41.622Z,25.39
2022-08-18T15:42:49.819Z,25.10
2022-08-18T15:44:53.884Z,26.24
2022-08-18T15:46:57.127Z,26.22
2022-08-18T15:49:00.125Z,25.84
2022-08-18T15:51:07.961Z,24.84
2022-08-18T15:53:17.128Z,25.62
2022-08-18T15:55:23.615Z,25.32
2022-08-18T15:57:38.683Z,25.64
2022-08-18T15:59:43.070Z,25.51
2022-08-18T16:01:49.970Z,25.80
2022-08-18T16:03:54.514Z,25.29
2022-08-18T16:05:57.504Z,22.77
2022-08-18T16:08:01.409Z,25.55
2022-08-18T16:10:05.585Z,25.95
2022-08-18T16:12:11.157Z,26.30
2022-08-18T16:14:14.726Z,26.61
2022-08-18T16:16:29.253Z,24.78
2022-08-18T16:18:40.005Z,25.92
2022-08-18T16:20:43.549Z,25.13
2022-08-18T16:22:47.039Z,16.26
2022-08-18T16:24:55.175Z,25.53
2022-08-18T16:26:58.592Z,24.64
2022-08-18T16:29:02.937Z,23.47
2022-08-18T16:31:06.246Z,23.69
2022-08-18T16:33:09.543Z,24.66
2022-08-18T16:35:12.777Z,24.51
2022-08-18T16:39:24.150Z,24.73
2022-08-18T16:41:27.996Z,24.80
2022-08-18T16:43:30.783Z,24.58
2022-08-18T16:45:37.708Z,24.83
2022-08-18T16:47:41.378Z,23.87
2022-08-18T16:49:45.896Z,23.85
2022-08-18T16:51:48.883Z,24.40
2022-08-18T16:53:53.521Z,20.35
2022-08-18T16:55:56.614Z,24.19
2022-08-18T16:58:16.831Z,24.07
2022-08-18T17:00:37.824Z,22.82
2022-08-18T17:13:48.807Z,24.11
2022-08-18T17:15:52.283Z,23.60
2022-08-18T17:17:56.562Z,23.48
2022-08-18T17:19:59.753Z,21.14
2022-08-18T17:22:03.560Z,23.83
2022-08-18T17:24:11.442Z,21.48
2022-08-18T17:26:23.141Z,22.70
2022-08-18T17:34:52.940Z,21.96
2022-08-18T17:36:58.115Z,21.99
2022-08-18T17:39:03.599Z,23.42
2022-08-18T17:41:07.348Z,23.07
2022-08-18T17:43:14.992Z,23.28
2022-08-18T17:45:21.846Z,22.42
2022-08-18T17:47:30.179Z,23.03
2022-08-18T17:50:26.315Z,22.88
2022-08-18T17:52:24.519Z,21.72
2022-08-18T17:54:36.914Z,22.64
2022-08-18T17:56:45.437Z,20.78
2022-08-18T17:58:56.405Z,22.58
2022-08-18T18:01:00.495Z,22.45
2022-08-18T18:03:03.965Z,22.50
2022-08-18T18:05:11.262Z,22.58
2022-08-18T18:07:24.541Z,22.62
2022-08-18T18:09:31.946Z,22.38
2022-08-18T18:11:38.026Z,22.50
2022-08-18T18:13:41.198Z,21.85
2022-08-18T18:15:48.785Z,20.50
2022-08-18T18:17:51.825Z,22.36
2022-08-18T18:19:57.968Z,12.83
2022-08-18T18:22:08.384Z,21.92
2022-08-18T18:24:17.061Z,22.25
2022-08-18T18:26:31.077Z,22.28
2022-08-18T18:28:36.082Z,21.88
2022-08-18T18:30:39.170Z,21.53
2022-08-18T18:32:59.600Z,19.69
2022-08-18T18:35:10.927Z,19.94
2022-08-18T18:37:26.384Z,16.29
2022-08-18T18:39:34.172Z,22.06
2022-08-18T18:41:40.041Z,17.48
2022-08-18T18:43:46.726Z,21.70
2022-08-18T18:46:23.620Z,21.93
2022-08-18T18:48:51.295Z,21.90
2022-08-18T18:51:10.977Z,21.78
2022-08-18T18:53:25.862Z,21.73
2022-08-18T18:55:37.423Z,21.71
2022-08-18T18:57:48.563Z,21.56
2022-08-18T19:00:05.547Z,20.01
2022-08-18T19:02:33.567Z,21.54
2022-08-18T19:04:41.380Z,19.89
2022-08-18T19:06:52.305Z,20.60
2022-08-18T19:09:04.283Z,21.37
2022-08-18T19:11:21.995Z,21.63
2022-08-18T19:13:33.327Z,21.49
2022-08-18T19:15:40.855Z,21.42
2022-08-18T19:17:47.960Z,20.64
2022-08-18T19:19:54.529Z,10.87
2022-08-18T19:22:06.478Z,19.37
2022-08-18T19:24:17.989Z,20.72
2022-08-18T19:26:38.499Z,21.39
2022-08-18T19:29:12.271Z,21.35
2022-08-18T19:31:14.808Z,21.24
2022-08-18T19:33:25.824Z,20.31
2022-08-18T19:35:37.818Z,20.50
2022-08-18T19:38:04.812Z,21.26
2022-08-18T19:40:15.437Z,20.86
2022-08-18T19:42:28.551Z,19.58
2022-08-18T19:45:00.255Z,21.23
2022-08-18T19:47:14.347Z,20.56
2022-08-18T19:49:31.457Z,16.56
2022-08-18T19:51:39.502Z,21.06
2022-08-18T19:54:18.364Z,21.30
2022-08-18T19:56:33.663Z,21.04
2022-08-18T19:59:18.640Z,21.09
2022-08-18T20:01:31.467Z,18.36
2022-08-18T20:03:51.551Z,20.43
2022-08-18T20:06:34.845Z,19.92
2022-08-18T20:09:04.480Z,21.13
2022-08-18T20:11:41.275Z,21.57
2022-08-18T20:13:47.090Z,21.53
2022-08-18T20:16:13.574Z,21.28
2022-08-18T20:18:23.021Z,21.67
2022-08-18T20:20:27.543Z,21.52
2022-08-18T20:22:35.404Z,21.57
2022-08-18T20:24:50.318Z,19.53
2022-08-18T20:26:53.356Z,21.80
2022-08-18T20:28:57.746Z,19.11
2022-08-18T20:31:14.835Z,21.49
2022-08-18T20:33:21.887Z,21.86
2022-08-18T20:35:32.140Z,20.36
2022-08-18T20:37:35.117Z,21.64
2022-08-18T20:39:44.540Z,21.73
2022-08-18T20:41:50.658Z,20.74
2022-08-18T20:44:06.541Z,21.60
2022-08-18T20:46:35.149Z,20.23
2022-08-18T20:48:52.370Z,20.37
2022-08-18T20:51:03.047Z,21.33
2022-08-18T20:53:15.347Z,21.29
2022-08-18T20:55:30.809Z,21.54
2022-08-18T20:57:37.937Z,21.40
2022-08-18T20:59:45.285Z,21.08
2022-08-18T21:01:58.337Z,21.13
2022-08-18T21:04:01.262Z,20.68
2022-08-18T21:06:05.599Z,18.82
2022-08-18T21:08:27.813Z,21.00
2022-08-18T21:10:33.198Z,21.09
2022-08-18T21:12:36.530Z,20.12
2022-08-18T21:14:39.503Z,21.32
2022-08-18T21:16:45.122Z,21.86
2022-08-18T21:18:53.226Z,21.79
2022-08-18T21:21:01.142Z,19.77
2022-08-18T21:23:09.356Z,18.27
2022-08-18T21:25:15.047Z,18.00
2022-08-18T21:27:25.380Z,20.87
2022-08-18T21:29:42.252Z,21.63
2022-08-18T21:31:51.928Z,21.71
2022-08-18T21:33:59.048Z,20.09
2022-08-18T21:36:11.624Z,22.01
2022-08-18T21:38:14.642Z,21.45
2022-08-18T21:40:17.604Z,21.54
2022-08-18T21:42:24.509Z,20.55
2022-08-18T21:44:37.539Z,19.97
2022-08-18T21:46:40.621Z,21.76
2022-08-18T21:48:50.110Z,21.83
2022-08-18T21:50:58.244Z,19.70
2022-08-18T21:53:06.625Z,19.08
2022-08-18T21:55:25.801Z,22.02
2022-08-18T21:57:30.375Z,21.76
2022-08-18T21:59:33.220Z,21.79
2022-08-18T22:01:37.673Z,16.62
2022-08-18T22:03:52.524Z,21.70
2022-08-18T22:06:18.193Z,21.41
2022-08-18T22:08:23.250Z,21.47
2022-08-18T22:10:46.250Z,21.39
2022-08-18T22:13:11.797Z,21.38
2022-08-18T22:15:18.539Z,21.52
2022-08-18T22:17:27.705Z,18.98
2022-08-18T22:19:30.878Z,21.18
2022-08-18T22:21:39.195Z,21.25
2022-08-18T22:24:05.087Z,21.46
2022-08-18T22:26:12.434Z,21.32
2022-08-18T22:28:20.823Z,21.20
2022-08-18T22:30:23.700Z,21.17
2022-08-18T22:32:26.582Z,21.22
2022-08-18T22:34:32.029Z,21.44
2022-08-18T22:36:39.370Z,21.48
2022-08-18T22:38:43.197Z,21.22
2022-08-18T22:40:46.076Z,21.48
2022-08-18T22:42:49.068Z,19.88
2022-08-18T22:44:52.343Z,21.58
2022-08-18T22:46:55.293Z,21.48
2022-08-18T22:48:58.434Z,21.50
2022-08-18T22:51:01.573Z,20.61
2022-08-18T22:53:05.864Z,21.13
2022-08-18T22:55:12.436Z,20.61
2022-08-18T22:57:15.693Z,19.72
2022-08-18T22:59:20.485Z,21.55
2022-08-18T23:01:24.264Z,21.58
2022-08-18T23:03:27.924Z,21.58
2022-08-18T23:05:32.649Z,21.33
2022-08-18T23:07:35.555Z,21.14
2022-08-18T23:09:40.246Z,21.55
2022-08-18T23:11:43.268Z,21.38
2022-08-18T23:13:47.062Z,21.21
2022-08-18T23:15:49.957Z,21.33
2022-08-18T23:17:53.417Z,19.94
2022-08-18T23:19:56.259Z,19.18
2022-08-18T23:21:59.867Z,21.07
2022-08-18T23:24:02.803Z,21.21
2022-08-18T23:26:11.529Z,21.44
2022-08-18T23:28:15.763Z,20.67
2022-08-18T23:30:18.713Z,21.65
2022-08-18T23:32:21.569Z,21.26
2022-08-18T23:34:34.841Z,21.19
2022-08-18T23:36:45.128Z,20.59
2022-08-18T23:38:49.209Z,21.52
2022-08-18T23:40:52.861Z,21.33
2022-08-18T23:42:59.980Z,20.73
2022-08-18T23:45:04.747Z,21.20
2022-08-18T23:47:07.928Z,20.31
2022-08-18T23:49:14.883Z,21.12
2022-08-18T23:51:29.892Z,21.24
2022-08-18T23:53:32.842Z,21.28
2022-08-18T23:55:35.774Z,21.02
2022-08-18T23:57:39.116Z,20.50
2022-08-18T23:59:43.817Z,21.08
